Terminal Aerodrome Forecast
Issued by NWS

Home | Current Version | Previous Version | Text Only | Print | Product List | Glossary Off
Versions: 1 2 3 4 5 6 7 8 9 10 11 12 13 14

951
FTUS43 KICT 231140
TAFRSL
TAF
KRSL 231140Z 2312/2412 18017KT P6SM SKC
     FM231500 18017G22KT P6SM SCT045
     FM231800 18022G26KT P6SM BKN050=

USA.gov is the U.S. government's official web portal to all federal, state and local government web resources and services.